createdAt,value
2022-11-28T00:01:35.872Z,11.85
2022-11-28T00:04:04.738Z,13.18
2022-11-28T00:06:32.716Z,16.50
2022-11-28T00:09:00.531Z,11.85
2022-11-28T00:11:29.010Z,12.80
2022-11-28T00:13:56.747Z,12.80
2022-11-28T00:16:24.796Z,10.77
2022-11-28T00:18:55.080Z,13.90
2022-11-28T00:21:23.651Z,11.85
2022-11-28T00:23:52.092Z,11.10
2022-11-28T00:26:34.959Z,14.00
2022-11-28T00:29:03.229Z,11.10
2022-11-28T00:31:42.739Z,11.13
2022-11-28T00:34:12.855Z,12.70
2022-11-28T00:36:40.575Z,12.82
2022-11-28T00:39:08.237Z,13.60
2022-11-28T00:41:36.020Z,14.35
2022-11-28T00:44:03.538Z,11.63
2022-11-28T00:46:31.125Z,10.45
2022-11-28T00:48:59.682Z,11.93
2022-11-28T00:51:30.547Z,12.52
2022-11-28T00:53:59.933Z,8.82
2022-11-28T00:56:30.664Z,13.35
2022-11-28T00:58:59.496Z,12.00
2022-11-28T01:01:29.271Z,10.73
2022-11-28T01:03:59.443Z,12.73
2022-11-28T01:06:36.254Z,13.13
2022-11-28T01:09:10.117Z,12.32
2022-11-28T01:11:41.979Z,9.50
2022-11-28T01:14:10.824Z,12.45
2022-11-28T01:16:39.097Z,12.15
2022-11-28T01:19:07.667Z,11.35
2022-11-28T01:21:35.804Z,10.52
2022-11-28T01:24:04.145Z,12.65
2022-11-28T01:26:31.815Z,11.90
2022-11-28T01:29:00.824Z,15.10
2022-11-28T01:31:30.009Z,15.00
2022-11-28T01:33:58.233Z,12.93
2022-11-28T01:36:27.037Z,10.68
2022-11-28T01:38:55.033Z,14.38
2022-11-28T01:41:25.567Z,19.77
2022-11-28T01:43:59.250Z,11.55
2022-11-28T01:46:27.400Z,10.85
2022-11-28T01:49:09.876Z,12.00
2022-11-28T01:51:40.893Z,14.20
2022-11-28T01:54:08.738Z,13.48
2022-11-28T01:56:44.441Z,11.82
2022-11-28T01:59:14.303Z,13.75
2022-11-28T02:01:44.904Z,14.07
2022-11-28T02:04:14.168Z,10.88
2022-11-28T02:06:42.790Z,10.43
2022-11-28T02:09:15.276Z,10.57
2022-11-28T02:12:15.096Z,12.95
2022-11-28T02:14:59.243Z,9.20
2022-11-28T02:17:29.743Z,10.98
2022-11-28T02:20:17.502Z,12.25
2022-11-28T02:22:47.955Z,9.70
2022-11-28T02:25:35.770Z,11.57
2022-11-28T02:28:25.122Z,9.48
2022-11-28T02:31:15.686Z,10.95
2022-11-28T02:33:48.731Z,12.30
2022-11-28T02:36:48.927Z,11.95
2022-11-28T02:39:36.192Z,12.98
2022-11-28T02:42:18.479Z,13.70
2022-11-28T02:44:59.876Z,13.00
2022-11-28T02:47:38.049Z,12.85
2022-11-28T02:50:10.715Z,13.70
2022-11-28T02:52:52.148Z,13.98
2022-11-28T02:55:20.566Z,11.75
2022-11-28T02:57:50.588Z,10.13
2022-11-28T03:00:26.192Z,12.43
2022-11-28T03:03:21.874Z,12.55
2022-11-28T03:06:05.717Z,14.60
2022-11-28T03:09:02.045Z,14.27
2022-11-28T03:11:44.852Z,15.35
2022-11-28T03:14:38.835Z,13.05
2022-11-28T03:17:21.218Z,12.98
2022-11-28T03:20:13.134Z,15.45
2022-11-28T03:22:59.253Z,16.63
2022-11-28T03:25:31.483Z,12.70
2022-11-28T03:28:27.362Z,16.40
2022-11-28T03:31:03.345Z,10.20
2022-11-28T03:33:38.442Z,12.90
2022-11-28T03:36:14.848Z,11.90
2022-11-28T03:38:45.661Z,11.35
2022-11-28T03:41:31.760Z,14.55
2022-11-28T03:44:02.459Z,19.13
2022-11-28T03:46:38.418Z,10.95
2022-11-28T03:49:09.605Z,12.48
2022-11-28T03:51:39.817Z,8.30
2022-11-28T03:54:10.534Z,13.23
2022-11-28T03:56:45.345Z,11.82
2022-11-28T03:59:26.536Z,12.30
2022-11-28T04:02:03.620Z,14.00
2022-11-28T04:04:48.243Z,11.80
2022-11-28T04:07:25.323Z,10.93
2022-11-28T04:09:58.970Z,9.20
2022-11-28T04:12:54.625Z,8.38
2022-11-28T04:15:31.103Z,10.85
2022-11-28T04:18:27.086Z,10.07
2022-11-28T04:21:06.594Z,10.70
2022-11-28T04:23:36.699Z,8.82
2022-11-28T04:26:11.795Z,10.18
2022-11-28T04:28:41.235Z,11.27
2022-11-28T04:31:10.061Z,11.63
2022-11-28T04:33:41.649Z,11.45
2022-11-28T04:36:11.963Z,16.13
2022-11-28T04:38:42.139Z,11.70
2022-11-28T04:41:20.559Z,13.75
2022-11-28T04:44:04.380Z,9.55
2022-11-28T04:46:39.833Z,15.75
2022-11-28T04:49:07.793Z,12.00
2022-11-28T04:51:59.372Z,11.57
2022-11-28T04:54:52.979Z,10.38
2022-11-28T04:57:43.296Z,16.95
2022-11-28T05:00:16.985Z,13.35
2022-11-28T05:02:47.100Z,11.93
2022-11-28T05:05:17.761Z,10.82
2022-11-28T05:07:45.748Z,12.23
2022-11-28T05:10:14.356Z,11.05
2022-11-28T05:12:42.086Z,12.98
2022-11-28T05:15:10.379Z,11.73
2022-11-28T05:17:42.250Z,11.85
2022-11-28T05:20:10.725Z,13.47
2022-11-28T05:22:38.255Z,10.80
2022-11-28T05:25:07.139Z,13.48
2022-11-28T05:27:34.801Z,10.75
2022-11-28T05:30:02.783Z,8.95
2022-11-28T05:32:31.361Z,11.88
2022-11-28T05:34:59.266Z,12.20
2022-11-28T05:37:26.974Z,10.85
2022-11-28T05:39:54.772Z,14.02
2022-11-28T05:42:22.527Z,16.17
2022-11-28T05:44:50.496Z,15.80
2022-11-28T05:47:18.235Z,14.43
2022-11-28T05:49:48.243Z,15.90
2022-11-28T05:52:15.933Z,16.27
2022-11-28T05:54:43.694Z,15.65
2022-11-28T05:57:11.351Z,12.65
2022-11-28T05:59:38.941Z,15.45
2022-11-28T06:02:06.596Z,23.33
2022-11-28T06:04:34.297Z,18.38
2022-11-28T06:07:01.996Z,20.80
2022-11-28T06:09:29.639Z,21.90
2022-11-28T06:11:57.425Z,13.35
2022-11-28T06:14:25.006Z,18.73
2022-11-28T06:16:52.734Z,20.20
2022-11-28T06:19:20.389Z,13.73
2022-11-28T06:21:50.789Z,15.93
2022-11-28T06:24:18.445Z,12.90
2022-11-28T06:26:46.641Z,16.85
2022-11-28T06:29:14.191Z,18.85
2022-11-28T06:31:41.832Z,13.45
2022-11-28T06:34:12.747Z,17.33
2022-11-28T06:36:40.415Z,11.63
2022-11-28T06:39:08.100Z,18.50
2022-11-28T06:41:35.664Z,18.58
2022-11-28T06:44:03.366Z,20.52
2022-11-28T06:46:30.933Z,15.05
2022-11-28T06:48:58.727Z,20.17
2022-11-28T06:51:26.219Z,16.27
2022-11-28T06:53:54.607Z,14.88
2022-11-28T06:56:22.694Z,14.23
2022-11-28T06:58:55.897Z,20.58
2022-11-28T07:01:24.853Z,15.10
2022-11-28T07:03:54.538Z,17.83
2022-11-28T07:06:23.953Z,13.30
2022-11-28T07:08:51.686Z,13.55
2022-11-28T07:11:22.415Z,16.08
2022-11-28T07:13:51.486Z,13.85
2022-11-28T07:16:22.380Z,13.48
2022-11-28T07:18:50.766Z,15.30
2022-11-28T07:21:19.237Z,19.83
2022-11-28T07:23:47.780Z,17.38
2022-11-28T07:26:17.513Z,19.67
2022-11-28T07:28:46.505Z,19.98
2022-11-28T07:31:21.523Z,19.13
2022-11-28T07:33:50.894Z,20.58
2022-11-28T07:36:27.541Z,11.43
2022-11-28T07:38:57.536Z,17.10
2022-11-28T07:41:27.385Z,14.98
2022-11-28T07:43:57.471Z,20.20
2022-11-28T07:46:26.231Z,15.27
2022-11-28T07:48:53.957Z,16.80
2022-11-28T07:51:24.498Z,14.63
2022-11-28T07:53:52.488Z,13.35
2022-11-28T07:56:23.266Z,15.40
2022-11-28T07:58:51.085Z,15.07
2022-11-28T08:01:28.320Z,15.75
2022-11-28T08:03:56.991Z,13.88
2022-11-28T08:06:27.581Z,15.80
2022-11-28T08:08:56.453Z,21.83
2022-11-28T08:11:25.546Z,14.15
2022-11-28T08:13:56.419Z,13.60
2022-11-28T08:16:27.772Z,20.35
2022-11-28T08:18:56.473Z,12.82
2022-11-28T08:21:30.026Z,17.13
2022-11-28T08:24:01.409Z,14.38
2022-11-28T08:26:31.341Z,15.23
2022-11-28T08:29:00.453Z,20.05
2022-11-28T08:31:34.085Z,12.90
2022-11-28T08:34:03.959Z,16.08
2022-11-28T08:36:31.604Z,19.33
2022-11-28T08:41:53.258Z,17.53
2022-11-28T08:44:21.168Z,13.45
2022-11-28T08:46:48.784Z,11.55
2022-11-28T08:49:16.431Z,10.75
2022-11-28T08:51:44.105Z,16.92
2022-11-28T08:54:11.707Z,14.68
2022-11-28T08:56:39.358Z,12.45
2022-11-28T08:59:07.440Z,20.83
2022-11-28T09:01:35.298Z,14.50
2022-11-28T09:04:04.580Z,14.65
2022-11-28T09:06:32.298Z,12.75
2022-11-28T09:08:59.922Z,13.60
2022-11-28T09:11:27.475Z,14.50
2022-11-28T09:13:55.806Z,14.43
2022-11-28T09:16:23.366Z,11.68
2022-11-28T09:18:51.411Z,17.40
2022-11-28T09:21:18.943Z,11.60
2022-11-28T09:23:46.714Z,20.95
2022-11-28T09:26:20.530Z,15.43
2022-11-28T09:28:48.882Z,15.60
2022-11-28T09:31:18.339Z,23.95
2022-11-28T09:33:49.615Z,11.25
2022-11-28T09:36:19.845Z,14.27
2022-11-28T09:38:48.901Z,12.48
2022-11-28T09:41:28.405Z,16.73
2022-11-28T09:44:34.024Z,21.17
2022-11-28T09:47:06.987Z,16.77
2022-11-28T09:49:41.805Z,13.00
2022-11-28T09:52:39.819Z,12.30
2022-11-28T09:55:30.877Z,18.95
2022-11-28T09:58:06.557Z,18.40
2022-11-28T10:00:41.883Z,13.57
2022-11-28T10:03:37.622Z,10.35
2022-11-28T10:06:27.466Z,13.05
2022-11-28T10:09:36.576Z,15.90
2022-11-28T10:12:22.392Z,13.77
2022-11-28T10:15:15.815Z,13.73
2022-11-28T10:18:08.546Z,16.55
2022-11-28T10:20:45.919Z,17.57
2022-11-28T10:23:21.972Z,12.13
2022-11-28T10:25:53.874Z,14.55
2022-11-28T10:28:30.415Z,13.30
2022-11-28T10:31:21.062Z,10.43
2022-11-28T10:34:16.423Z,14.50
2022-11-28T10:36:50.053Z,13.30
2022-11-28T10:39:18.154Z,20.60
2022-11-28T10:42:17.217Z,15.55
2022-11-28T10:45:21.812Z,17.02
2022-11-28T10:48:38.447Z,14.40
2022-11-28T10:51:38.527Z,12.77
2022-11-28T10:54:37.229Z,13.60
2022-11-28T10:57:09.116Z,14.30
2022-11-28T11:02:46.302Z,13.13
2022-11-28T11:05:19.870Z,12.25
2022-11-28T11:07:53.539Z,13.07
2022-11-28T11:10:28.736Z,11.70
2022-11-28T11:12:56.473Z,10.85
2022-11-28T11:15:31.508Z,15.13
2022-11-28T11:18:04.751Z,15.38
2022-11-28T11:23:25.107Z,11.43
2022-11-28T11:25:58.428Z,11.60
2022-11-28T11:28:32.822Z,18.42
2022-11-28T11:31:05.796Z,11.13
2022-11-28T11:33:38.450Z,14.27
2022-11-28T11:36:21.810Z,14.15
2022-11-28T11:38:49.492Z,10.13
2022-11-28T11:41:35.585Z,16.92
2022-11-28T11:44:15.577Z,13.38
2022-11-28T11:47:00.719Z,16.05
2022-11-28T11:49:32.852Z,12.73
2022-11-28T11:52:15.012Z,12.57
2022-11-28T11:54:58.212Z,11.07
2022-11-28T11:57:34.806Z,14.20
2022-11-28T12:00:16.972Z,12.68
2022-11-28T12:02:46.249Z,13.10
2022-11-28T12:05:18.017Z,13.35
2022-11-28T12:08:01.293Z,12.68
2022-11-28T12:10:32.319Z,14.27
2022-11-28T12:13:01.805Z,11.00
2022-11-28T12:15:44.133Z,11.05
2022-11-28T12:18:49.508Z,17.30
2022-11-28T12:21:26.133Z,11.93
2022-11-28T12:24:12.564Z,11.55
2022-11-28T12:27:01.957Z,14.70
2022-11-28T12:30:07.662Z,13.98
2022-11-28T12:33:10.002Z,12.00
2022-11-28T12:35:41.134Z,11.75
2022-11-28T12:38:47.261Z,14.70
2022-11-28T12:41:42.386Z,11.75
2022-11-28T12:44:23.426Z,13.02
2022-11-28T12:47:29.205Z,14.73
2022-11-28T12:50:00.672Z,12.80
2022-11-28T12:52:49.531Z,11.77
2022-11-28T12:55:31.047Z,14.43
2022-11-28T12:58:08.277Z,13.10
2022-11-28T13:01:07.361Z,12.07
2022-11-28T13:03:41.598Z,13.07
2022-11-28T13:06:12.043Z,11.13
2022-11-28T13:08:55.348Z,17.42
2022-11-28T13:11:28.767Z,57.65
2022-11-28T13:14:03.477Z,15.43
2022-11-28T13:16:42.086Z,13.00
2022-11-28T13:19:27.889Z,14.00
2022-11-28T13:22:14.852Z,12.63
2022-11-28T13:25:08.931Z,11.82
2022-11-28T13:27:49.053Z,14.05
2022-11-28T13:30:28.813Z,9.75
2022-11-28T13:33:05.399Z,9.65
2022-11-28T13:35:34.256Z,10.25
2022-11-28T13:38:36.121Z,8.50
2022-11-28T13:42:21.415Z,17.73
2022-11-28T13:44:28.850Z,11.70
2022-11-28T13:46:56.816Z,8.77
2022-11-28T13:49:26.907Z,9.13
2022-11-28T13:52:19.365Z,9.52
2022-11-28T13:54:54.547Z,11.38
2022-11-28T13:57:51.864Z,10.40
2022-11-28T14:00:19.443Z,10.55
2022-11-28T14:02:51.292Z,10.88
2022-11-28T14:05:29.327Z,14.85
2022-11-28T14:07:57.896Z,9.02
2022-11-28T14:10:57.820Z,9.25
2022-11-28T14:13:44.921Z,10.20
2022-11-28T14:16:51.420Z,12.38
2022-11-28T14:19:31.032Z,13.80
2022-11-28T14:22:27.950Z,13.98
2022-11-28T14:25:19.528Z,13.80
2022-11-28T14:27:57.162Z,13.30
2022-11-28T14:30:46.633Z,9.55
2022-11-28T14:33:42.602Z,11.65
2022-11-28T14:36:34.880Z,13.57
2022-11-28T14:39:14.860Z,12.30
2022-11-28T14:42:05.432Z,11.57
2022-11-28T14:44:53.016Z,8.88
2022-11-28T14:47:39.679Z,15.43
2022-11-28T14:50:09.260Z,11.98
2022-11-28T14:52:40.439Z,13.43
2022-11-28T14:55:13.151Z,11.68
2022-11-28T14:58:01.097Z,18.90
2022-11-28T15:00:50.823Z,10.27
2022-11-28T15:03:27.783Z,14.07
2022-11-28T15:06:02.349Z,11.52
2022-11-28T15:08:49.608Z,12.88
2022-11-28T15:11:40.706Z,13.05
2022-11-28T15:14:21.781Z,18.58
2022-11-28T15:16:54.987Z,10.55
2022-11-28T15:19:30.947Z,9.83
2022-11-28T15:21:59.121Z,14.13
2022-11-28T15:24:26.723Z,12.73
2022-11-28T15:26:57.836Z,11.57
2022-11-28T15:29:29.066Z,12.70
2022-11-28T15:31:58.496Z,16.88
2022-11-28T15:34:37.785Z,14.95
2022-11-28T15:37:18.406Z,15.82
2022-11-28T15:39:48.716Z,16.38
2022-11-28T15:42:47.954Z,18.30
2022-11-28T15:45:30.832Z,16.25
2022-11-28T15:47:59.402Z,21.80
2022-11-28T15:50:32.262Z,19.27
2022-11-28T15:53:14.579Z,19.23
2022-11-28T15:55:42.525Z,22.38
2022-11-28T15:58:22.303Z,16.05
2022-11-28T16:00:58.241Z,22.23
2022-11-28T16:03:30.032Z,17.98
2022-11-28T16:05:58.850Z,21.15
2022-11-28T16:08:32.197Z,20.13
2022-11-28T16:13:31.570Z,20.00
2022-11-28T16:16:01.590Z,16.88
2022-11-28T16:18:30.204Z,17.73
2022-11-28T16:20:59.645Z,19.55
2022-11-28T16:23:33.718Z,18.75
2022-11-28T16:26:04.483Z,23.25
2022-11-28T16:28:37.841Z,21.38
2022-11-28T16:31:23.823Z,20.02
2022-11-28T16:33:52.209Z,17.65
2022-11-28T16:36:24.358Z,18.67
2022-11-28T16:39:02.913Z,19.83
2022-11-28T16:41:32.149Z,17.08
2022-11-28T16:44:11.128Z,19.58
2022-11-28T16:46:56.210Z,23.27
2022-11-28T16:49:36.253Z,23.13
2022-11-28T16:52:22.567Z,24.70
2022-11-28T16:54:54.027Z,25.63
2022-11-28T16:57:21.846Z,23.35
2022-11-28T16:59:53.852Z,20.52
2022-11-28T17:02:24.065Z,21.98
2022-11-28T17:04:53.219Z,24.08
2022-11-28T17:07:23.779Z,17.35
2022-11-28T17:09:51.451Z,17.17
2022-11-28T17:12:32.647Z,23.88
2022-11-28T17:15:00.120Z,27.73
2022-11-28T17:17:28.005Z,21.10
2022-11-28T17:19:55.435Z,21.98
2022-11-28T17:22:41.265Z,23.40
2022-11-28T17:25:20.668Z,24.40
2022-11-28T17:27:48.430Z,25.00
2022-11-28T17:30:17.931Z,20.85
2022-11-28T17:32:48.122Z,24.85
2022-11-28T17:35:23.739Z,20.10
2022-11-28T17:37:51.342Z,26.02
2022-11-28T17:40:33.952Z,24.20
2022-11-28T17:43:02.106Z,24.60
2022-11-28T17:45:32.375Z,21.50
2022-11-28T17:47:59.998Z,22.95
2022-11-28T17:50:28.620Z,20.42
2022-11-28T17:52:56.474Z,23.52
2022-11-28T17:55:23.923Z,20.77
2022-11-28T17:57:51.706Z,22.85
2022-11-28T18:00:19.529Z,24.35
2022-11-28T18:02:47.154Z,23.33
2022-11-28T18:05:14.706Z,24.98
2022-11-28T18:07:42.532Z,23.05
2022-11-28T18:10:12.598Z,23.88
2022-11-28T18:12:40.222Z,30.38
2022-11-28T18:15:10.637Z,24.95
2022-11-28T18:17:39.058Z,24.60
2022-11-28T18:20:07.398Z,22.73
2022-11-28T18:22:35.241Z,28.50
2022-11-28T18:25:02.913Z,27.00
2022-11-28T18:27:30.747Z,26.25
2022-11-28T18:29:58.188Z,25.50
2022-11-28T18:32:25.809Z,33.08
2022-11-28T18:34:53.432Z,24.58
2022-11-28T18:37:20.897Z,22.85
2022-11-28T18:39:48.407Z,24.73
2022-11-28T18:42:18.065Z,27.27
2022-11-28T18:44:45.732Z,28.00
2022-11-28T18:47:13.295Z,20.17
2022-11-28T18:49:41.544Z,20.92
2022-11-28T18:52:09.817Z,18.30
2022-11-28T18:54:38.724Z,24.95
2022-11-28T18:57:09.323Z,23.48
2022-11-28T18:59:36.966Z,25.05
2022-11-28T19:02:04.752Z,20.08
2022-11-28T19:04:32.430Z,22.88
2022-11-28T19:07:01.637Z,28.05
2022-11-28T19:09:34.038Z,21.00
2022-11-28T19:12:01.545Z,30.83
2022-11-28T19:14:29.319Z,21.75
2022-11-28T19:16:57.082Z,19.45
2022-11-28T19:19:25.005Z,26.48
2022-11-28T19:21:52.709Z,23.75
2022-11-28T19:24:20.372Z,20.83
2022-11-28T19:26:48.252Z,24.17
2022-11-28T19:29:16.093Z,28.48
2022-11-28T19:31:43.821Z,24.33
2022-11-28T19:34:17.590Z,28.38
2022-11-28T19:36:51.225Z,23.65
2022-11-28T19:39:22.234Z,33.70
2022-11-28T19:41:52.153Z,24.08
2022-11-28T19:44:21.289Z,29.50
2022-11-28T19:46:49.401Z,30.05
2022-11-28T19:49:20.296Z,28.10
2022-11-28T19:51:50.325Z,27.33
2022-11-28T19:54:22.212Z,21.83
2022-11-28T19:56:51.191Z,25.02
2022-11-28T19:59:28.231Z,26.30
2022-11-28T20:02:49.080Z,25.75
2022-11-28T20:05:16.783Z,31.05
2022-11-28T20:07:44.687Z,30.75
2022-11-28T20:10:13.370Z,28.17
2022-11-28T20:12:42.297Z,22.27
2022-11-28T20:15:15.167Z,28.27
2022-11-28T20:17:46.150Z,28.92
2022-11-28T20:20:14.215Z,24.58
2022-11-28T20:22:43.011Z,28.23
2022-11-28T20:25:10.779Z,31.23
2022-11-28T20:27:49.891Z,32.80
2022-11-28T20:30:20.828Z,29.38
2022-11-28T20:32:50.065Z,27.92
2022-11-28T20:35:19.240Z,28.65
2022-11-28T20:37:46.973Z,32.13
2022-11-28T20:40:14.886Z,23.73
2022-11-28T20:42:42.635Z,27.05
2022-11-28T20:45:10.633Z,28.48
2022-11-28T20:47:38.540Z,21.98
2022-11-28T20:50:07.513Z,26.67
2022-11-28T20:52:35.159Z,38.10
2022-11-28T20:55:02.786Z,23.92
2022-11-28T20:57:34.021Z,26.77
2022-11-28T21:00:01.670Z,29.40
2022-11-28T21:02:29.828Z,28.10
2022-11-28T21:05:02.592Z,22.52
2022-11-28T21:07:31.135Z,26.42
2022-11-28T21:10:00.113Z,23.33
2022-11-28T21:12:27.834Z,28.25
2022-11-28T21:14:55.397Z,27.10
2022-11-28T21:17:23.019Z,25.75
2022-11-28T21:19:50.580Z,24.77
2022-11-28T21:22:18.065Z,20.13
2022-11-28T21:24:49.217Z,27.25
2022-11-28T21:27:17.540Z,22.70
2022-11-28T21:29:45.735Z,21.70
2022-11-28T21:32:19.075Z,31.90
2022-11-28T21:34:46.697Z,27.50
2022-11-28T21:37:14.438Z,27.15
2022-11-28T21:39:42.211Z,26.95
2022-11-28T21:42:10.043Z,26.67
2022-11-28T21:44:37.765Z,23.98
2022-11-28T21:47:05.610Z,21.75
2022-11-28T21:49:33.259Z,25.63
2022-11-28T21:52:01.178Z,22.80
2022-11-28T21:54:28.819Z,23.40
2022-11-28T21:56:56.427Z,27.10
2022-11-28T21:59:24.131Z,22.08
2022-11-28T22:01:51.977Z,29.30
2022-11-28T22:04:22.089Z,23.38
2022-11-28T22:06:51.399Z,23.85
2022-11-28T22:09:19.260Z,24.95
2022-11-28T22:11:47.166Z,27.13
2022-11-28T22:14:16.487Z,24.92
2022-11-28T22:16:44.027Z,27.30
2022-11-28T22:19:12.070Z,23.17
2022-11-28T22:21:56.553Z,23.08
2022-11-28T22:24:25.461Z,24.98
2022-11-28T22:26:55.238Z,24.88
2022-11-28T22:29:26.423Z,22.45
2022-11-28T22:31:54.821Z,31.40
2022-11-28T22:34:23.692Z,26.85
2022-11-28T22:36:51.420Z,29.27
2022-11-28T22:39:21.091Z,24.30
2022-11-28T22:41:49.429Z,23.17
2022-11-28T22:44:17.205Z,22.70
2022-11-28T22:46:45.003Z,23.63
2022-11-28T22:49:13.339Z,25.48
2022-11-28T22:51:41.651Z,24.77
2022-11-28T22:54:12.655Z,26.85
2022-11-28T22:56:40.882Z,31.02
2022-11-28T22:59:14.175Z,43.15
2022-11-28T23:01:43.710Z,33.60
2022-11-28T23:04:14.632Z,27.25
2022-11-28T23:06:42.395Z,27.88
2022-11-28T23:09:12.218Z,30.60
2022-11-28T23:11:43.230Z,32.10
2022-11-28T23:14:15.153Z,28.70
2022-11-28T23:16:44.509Z,29.60
2022-11-28T23:19:14.922Z,28.17
2022-11-28T23:21:46.720Z,24.98
2022-11-28T23:24:21.132Z,21.48
2022-11-28T23:26:50.917Z,21.95
2022-11-28T23:29:19.189Z,20.50
2022-11-28T23:31:47.743Z,22.80
2022-11-28T23:34:16.013Z,23.65
2022-11-28T23:36:47.874Z,29.75
2022-11-28T23:39:21.386Z,30.58
2022-11-28T23:41:50.267Z,25.73
2022-11-28T23:44:19.567Z,26.17
2022-11-28T23:46:48.508Z,26.33
2022-11-28T23:49:16.788Z,21.58
2022-11-28T23:51:44.372Z,23.02
2022-11-28T23:54:12.384Z,26.73
2022-11-28T23:56:41.304Z,25.05
2022-11-28T23:59:10.850Z,26.35
